createdAt,value
2018-09-10T00:02:20.864Z,2.80
2018-09-10T00:04:54.874Z,2.50
2018-09-10T00:07:31.253Z,2.73
2018-09-10T00:10:14.678Z,3.00
2018-09-10T00:12:49.575Z,2.70
2018-09-10T00:15:24.176Z,2.90
2018-09-10T00:17:58.308Z,2.50
2018-09-10T00:20:33.212Z,3.00
2018-09-10T00:23:13.553Z,2.70
2018-09-10T00:25:51.777Z,2.60
2018-09-10T00:28:27.796Z,2.80
2018-09-10T00:31:23.106Z,2.80
2018-09-10T00:36:46.765Z,2.20
2018-09-10T00:42:10.730Z,2.40
2018-09-10T00:44:50.613Z,2.50
2018-09-10T00:47:25.789Z,2.27
2018-09-10T00:50:03.412Z,2.33
2018-09-10T00:52:44.554Z,2.50
2018-09-10T00:55:25.141Z,2.30
2018-09-10T00:58:04.062Z,2.70
2018-09-10T01:00:39.808Z,2.53
2018-09-10T01:03:25.164Z,2.30
2018-09-10T01:06:01.691Z,2.50
2018-09-10T01:08:38.258Z,2.43
2018-09-10T01:11:13.605Z,2.67
2018-09-10T01:13:54.928Z,2.50
2018-09-10T01:16:32.933Z,2.73
2018-09-10T01:19:10.353Z,2.60
2018-09-10T01:21:44.673Z,2.20
2018-09-10T01:26:59.368Z,2.70
2018-09-10T01:29:37.284Z,2.70
2018-09-10T01:32:14.983Z,2.60
2018-09-10T01:34:54.602Z,2.40
2018-09-10T01:37:28.996Z,3.00
2018-09-10T01:40:07.853Z,2.57
2018-09-10T01:42:51.661Z,2.70
2018-09-10T01:45:26.020Z,2.67
2018-09-10T01:48:03.734Z,2.57
2018-09-10T01:50:44.868Z,2.63
2018-09-10T01:53:19.415Z,2.70
2018-09-10T02:07:35.667Z,3.00
2018-09-10T02:10:10.104Z,2.87
2018-09-10T02:12:47.062Z,2.60
2018-09-10T02:15:27.522Z,2.73
2018-09-10T02:18:01.990Z,3.00
2018-09-10T02:20:40.948Z,2.80
2018-09-10T02:23:15.031Z,2.80
2018-09-10T02:26:00.161Z,2.70
2018-09-10T02:28:34.178Z,2.80
2018-09-10T02:31:15.983Z,2.90
2018-09-10T02:33:50.391Z,3.33
2018-09-10T02:36:24.736Z,2.60
2018-09-10T02:39:06.547Z,2.80
2018-09-10T02:41:49.904Z,3.03
2018-09-10T02:44:26.275Z,2.60
2018-09-10T02:49:40.867Z,3.37
2018-09-10T02:52:21.830Z,2.90
2018-09-10T02:57:40.545Z,3.03
2018-09-10T03:00:18.845Z,2.80
2018-09-10T03:03:03.813Z,2.90
2018-09-10T03:05:42.487Z,2.90
2018-09-10T03:08:17.718Z,3.03
2018-09-10T03:11:04.448Z,3.13
2018-09-10T03:13:42.126Z,3.07
2018-09-10T03:19:21.632Z,3.60
2018-09-10T03:21:57.759Z,3.50
2018-09-10T03:27:46.299Z,3.23
2018-09-10T03:33:12.403Z,3.13
2018-09-10T03:38:46.325Z,3.40
2018-09-10T03:41:23.915Z,3.30
2018-09-10T03:43:59.026Z,3.30
2018-09-10T03:59:16.215Z,3.40
2018-09-10T04:01:57.091Z,3.17
2018-09-10T04:04:35.173Z,3.80
2018-09-10T04:07:10.292Z,4.00
2018-09-10T04:09:45.004Z,3.63
2018-09-10T04:12:25.071Z,3.80
2018-09-10T04:17:54.443Z,3.93
2018-09-10T04:23:28.452Z,3.50
2018-09-10T04:28:47.400Z,3.80
2018-09-10T04:31:23.215Z,3.80
2018-09-10T05:04:08.713Z,3.80
2018-09-10T05:10:01.216Z,3.10
2018-09-10T05:12:35.104Z,3.30
2018-09-10T05:20:41.009Z,3.43
2018-09-10T05:23:22.296Z,3.07
2018-09-10T05:25:59.798Z,3.23
2018-09-10T05:28:33.933Z,3.47
2018-09-10T05:31:15.063Z,3.70
2018-09-10T05:33:49.355Z,3.63
2018-09-10T05:36:24.941Z,3.27
2018-09-10T05:38:59.173Z,3.37
2018-09-10T05:44:56.045Z,3.17
2018-09-10T05:47:37.862Z,3.30
2018-09-10T05:50:12.421Z,3.50
2018-09-10T05:52:54.560Z,3.13
2018-09-10T05:58:26.020Z,3.07
2018-09-10T06:01:00.792Z,2.73
2018-09-10T06:03:34.784Z,3.13
2018-09-10T06:06:09.056Z,3.17
2018-09-10T06:08:43.152Z,3.00
2018-09-10T06:11:17.146Z,3.20
2018-09-10T06:13:51.191Z,2.63
2018-09-10T06:16:25.420Z,2.50
2018-09-10T06:18:59.296Z,2.53
2018-09-10T06:21:33.254Z,2.60
2018-09-10T06:24:07.311Z,2.63
2018-09-10T06:26:41.274Z,2.80
2018-09-10T06:29:15.094Z,2.70
2018-09-10T06:31:49.603Z,2.30
2018-09-10T06:34:23.411Z,2.60
2018-09-10T06:36:57.666Z,2.60
2018-09-10T06:39:31.733Z,2.17
2018-09-10T06:42:05.647Z,2.30
2018-09-10T06:44:39.349Z,2.37
2018-09-10T06:47:13.295Z,2.30
2018-09-10T06:49:47.127Z,2.10
2018-09-10T06:52:21.046Z,2.30
2018-09-10T06:54:55.042Z,2.17
2018-09-10T06:57:39.965Z,2.10
2018-09-10T07:00:13.879Z,1.90
2018-09-10T07:02:47.647Z,2.27
2018-09-10T07:05:21.574Z,2.23
2018-09-10T07:07:55.605Z,2.20
2018-09-10T07:10:36.117Z,1.77
2018-09-10T07:13:10.204Z,2.10
2018-09-10T07:15:43.976Z,1.90
2018-09-10T07:18:17.800Z,1.60
2018-09-10T07:20:51.885Z,1.97
2018-09-10T07:23:25.634Z,1.80
2018-09-10T07:25:59.866Z,2.17
2018-09-10T07:28:33.811Z,2.00
2018-09-10T07:31:07.779Z,1.77
2018-09-10T07:33:41.816Z,1.63
2018-09-10T07:36:16.018Z,1.63
2018-09-10T07:38:49.929Z,1.50
2018-09-10T07:41:23.864Z,2.00
2018-09-10T07:43:57.682Z,1.57
2018-09-10T07:46:31.753Z,1.87
2018-09-10T07:49:05.665Z,1.40
2018-09-10T07:51:39.625Z,1.90
2018-09-10T07:54:13.531Z,1.80
2018-09-10T07:56:47.272Z,1.70
2018-09-10T07:59:21.232Z,1.70
2018-09-10T08:01:55.137Z,1.67
2018-09-10T08:04:29.135Z,1.80
2018-09-10T08:07:03.006Z,1.60
2018-09-10T08:09:36.995Z,1.43
2018-09-10T08:12:10.988Z,1.73
2018-09-10T08:14:44.890Z,2.00
2018-09-10T08:17:18.695Z,1.83
2018-09-10T08:19:52.804Z,1.20
2018-09-10T08:22:26.860Z,1.70
2018-09-10T08:25:00.820Z,1.50
2018-09-10T08:27:34.840Z,1.70
2018-09-10T08:30:09.310Z,1.50
2018-09-10T08:32:43.070Z,1.53
2018-09-10T08:35:17.087Z,1.80
2018-09-10T08:37:50.886Z,1.30
2018-09-10T08:40:24.749Z,1.30
2018-09-10T08:42:58.559Z,1.57
2018-09-10T08:45:32.600Z,1.23
2018-09-10T08:48:06.739Z,1.80
2018-09-10T08:50:40.784Z,1.60
2018-09-10T08:53:14.725Z,1.60
2018-09-10T08:55:48.881Z,1.33
2018-09-10T08:58:22.651Z,1.70
2018-09-10T09:00:56.448Z,1.43
2018-09-10T09:03:30.517Z,1.57
2018-09-10T09:06:04.650Z,1.77
2018-09-10T09:08:38.616Z,1.40
2018-09-10T09:11:12.412Z,1.50
2018-09-10T09:13:46.322Z,1.60
2018-09-10T09:16:20.196Z,1.50
2018-09-10T09:18:54.243Z,1.37
2018-09-10T09:21:28.297Z,1.67
2018-09-10T09:24:02.162Z,1.43
2018-09-10T09:26:37.152Z,1.53
2018-09-10T09:29:11.071Z,1.87
2018-09-10T09:31:44.994Z,1.47
2018-09-10T09:34:18.987Z,1.40
2018-09-10T09:36:58.050Z,1.47
2018-09-10T09:39:37.220Z,1.63
2018-09-10T09:44:23.205Z,1.43
2018-09-10T09:46:56.958Z,1.30
2018-09-10T09:49:30.967Z,1.63
2018-09-10T09:52:04.891Z,1.70
2018-09-10T09:54:38.760Z,1.50
2018-09-10T09:57:12.689Z,1.30
2018-09-10T09:59:46.536Z,1.43
2018-09-10T10:02:21.516Z,1.30
2018-09-10T10:04:55.361Z,1.30
2018-09-10T10:07:29.361Z,1.17
2018-09-10T10:10:03.370Z,1.10
2018-09-10T10:12:37.422Z,1.40
2018-09-10T10:15:11.400Z,1.37
2018-09-10T10:17:45.580Z,1.00
2018-09-10T10:20:19.366Z,1.53
2018-09-10T10:22:53.230Z,1.43
2018-09-10T10:25:27.135Z,1.00
2018-09-10T10:28:01.351Z,1.23
2018-09-10T10:30:35.173Z,1.30
2018-09-10T10:33:09.058Z,1.30
2018-09-10T10:35:42.978Z,1.20
2018-09-10T10:38:16.777Z,1.30
2018-09-10T10:40:50.933Z,1.30
2018-09-10T10:43:24.954Z,1.47
2018-09-10T10:45:59.912Z,1.40
2018-09-10T10:48:33.919Z,1.50
2018-09-10T10:51:07.741Z,1.57
2018-09-10T10:53:41.651Z,1.57
2018-09-10T10:56:15.473Z,1.50
2018-09-10T10:58:49.530Z,1.50
2018-09-10T11:01:23.569Z,1.70
2018-09-10T11:03:57.466Z,1.60
2018-09-10T11:06:31.408Z,1.40
2018-09-10T11:09:06.198Z,1.40
2018-09-10T11:11:40.399Z,1.40
2018-09-10T11:14:14.273Z,1.53
2018-09-10T11:16:48.271Z,1.70
2018-09-10T11:19:22.083Z,2.00
2018-09-10T11:21:56.051Z,1.73
2018-09-10T11:24:29.790Z,1.70
2018-09-10T11:27:03.832Z,1.60
2018-09-10T11:29:37.568Z,1.73
2018-09-10T11:32:11.714Z,1.70
2018-09-10T11:34:46.358Z,1.87
2018-09-10T11:37:20.764Z,2.00
2018-09-10T11:39:54.921Z,1.60
2018-09-10T11:42:29.715Z,1.60
2018-09-10T11:45:03.714Z,1.70
2018-09-10T11:47:37.514Z,1.80
2018-09-10T11:50:11.470Z,1.70
2018-09-10T11:52:45.510Z,1.83
2018-09-10T11:55:19.297Z,1.63
2018-09-10T11:57:53.287Z,1.50
2018-09-10T12:00:27.325Z,1.60
2018-09-10T12:03:01.171Z,1.80
2018-09-10T12:05:35.078Z,1.67
2018-09-10T12:08:08.830Z,1.93
2018-09-10T12:10:42.708Z,1.87
2018-09-10T12:13:16.487Z,1.90
2018-09-10T12:15:50.310Z,2.17
2018-09-10T12:18:24.200Z,1.97
2018-09-10T12:20:57.999Z,2.20
2018-09-10T12:23:31.905Z,2.27
2018-09-10T12:26:06.005Z,2.00
2018-09-10T12:28:39.885Z,2.20
2018-09-10T12:31:13.760Z,1.93
2018-09-10T12:33:48.446Z,2.20
2018-09-10T12:36:23.646Z,3.03
2018-09-10T12:38:57.722Z,2.70
2018-09-10T12:41:31.705Z,2.20
2018-09-10T12:44:05.889Z,2.50
2018-09-10T12:46:39.868Z,2.67
2018-09-10T12:49:13.661Z,2.53
2018-09-10T12:51:47.621Z,3.13
2018-09-10T12:54:21.618Z,2.50
2018-09-10T12:56:56.137Z,2.70
2018-09-10T12:59:30.031Z,3.00
2018-09-10T13:02:04.140Z,2.87
2018-09-10T13:04:38.139Z,2.70
2018-09-10T13:07:11.982Z,2.60
2018-09-10T13:09:45.849Z,2.40
2018-09-10T13:12:19.875Z,2.50
2018-09-10T13:14:53.962Z,2.40
2018-09-10T13:17:27.811Z,2.77
2018-09-10T13:20:01.653Z,2.37
2018-09-10T13:22:35.434Z,2.60
2018-09-10T13:25:09.671Z,2.53
2018-09-10T13:27:43.639Z,2.70
2018-09-10T13:30:17.543Z,2.40
2018-09-10T13:32:51.555Z,2.67
2018-09-10T13:35:25.892Z,2.53
2018-09-10T13:37:59.702Z,2.70
2018-09-10T13:40:34.972Z,2.90
2018-09-10T13:43:09.753Z,2.50
2018-09-10T13:45:44.459Z,2.80
2018-09-10T13:48:18.740Z,2.60
2018-09-10T13:50:52.755Z,2.50
2018-09-10T13:53:26.678Z,2.67
2018-09-10T13:56:00.863Z,2.70
2018-09-10T13:58:34.604Z,2.90
2018-09-10T14:01:08.402Z,3.00
2018-09-10T14:03:42.203Z,3.73
2018-09-10T14:06:16.171Z,3.50
2018-09-10T14:08:50.164Z,3.77
2018-09-10T14:11:23.879Z,3.57
2018-09-10T14:13:57.624Z,3.27
2018-09-10T14:16:31.504Z,3.50
2018-09-10T14:19:05.448Z,3.23
2018-09-10T14:21:39.465Z,3.70
2018-09-10T14:24:13.796Z,4.33
2018-09-10T14:26:47.821Z,3.67
2018-09-10T14:29:21.846Z,4.20
2018-09-10T14:31:55.895Z,4.03
2018-09-10T14:34:30.051Z,4.13
2018-09-10T14:37:05.422Z,4.00
2018-09-10T14:39:39.278Z,4.00
2018-09-10T14:42:13.107Z,4.20
2018-09-10T14:44:47.337Z,4.03
2018-09-10T14:47:21.026Z,4.97
2018-09-10T14:49:54.975Z,4.60
2018-09-10T14:52:29.373Z,4.77
2018-09-10T14:55:03.875Z,5.57
2018-09-10T14:57:37.936Z,4.30
2018-09-10T15:00:18.463Z,4.20
2018-09-10T15:02:52.498Z,4.10
2018-09-10T15:05:26.729Z,4.57
2018-09-10T15:08:00.657Z,4.70
2018-09-10T15:10:34.698Z,4.70
2018-09-10T15:13:08.433Z,4.30
2018-09-10T15:15:42.451Z,4.43
2018-09-10T15:18:16.432Z,4.33
2018-09-10T15:20:50.289Z,3.70
2018-09-10T15:23:24.242Z,3.63
2018-09-10T15:25:58.324Z,3.10
2018-09-10T15:28:32.140Z,3.33
2018-09-10T15:31:06.143Z,2.73
2018-09-10T15:33:40.399Z,2.60
2018-09-10T15:36:14.358Z,2.77
2018-09-10T15:38:48.418Z,3.20
2018-09-10T15:41:22.111Z,2.67
2018-09-10T15:43:55.965Z,2.70
2018-09-10T15:46:29.862Z,2.37
2018-09-10T15:49:03.746Z,2.50
2018-09-10T15:51:37.655Z,2.67
2018-09-10T15:54:11.895Z,3.03
2018-09-10T15:56:45.805Z,3.00
2018-09-10T15:59:20.212Z,2.90
2018-09-10T16:01:54.238Z,2.60
2018-09-10T16:04:28.229Z,2.80
2018-09-10T16:07:02.925Z,3.20
2018-09-10T16:09:39.369Z,3.07
2018-09-10T16:12:14.517Z,3.13
2018-09-10T16:14:49.152Z,3.70
2018-09-10T16:17:23.073Z,3.90
2018-09-10T16:19:58.595Z,4.10
2018-09-10T16:22:32.452Z,3.87
2018-09-10T16:25:08.191Z,4.93
2018-09-10T16:27:42.120Z,4.37
2018-09-10T16:30:20.627Z,4.53
2018-09-10T16:32:54.738Z,4.90
2018-09-10T16:35:28.723Z,4.80
2018-09-10T16:38:02.689Z,4.87
2018-09-10T16:40:36.611Z,4.33
2018-09-10T16:43:10.587Z,4.17
2018-09-10T16:45:44.397Z,4.20
2018-09-10T16:48:19.217Z,4.50
2018-09-10T16:50:53.251Z,4.40
2018-09-10T16:53:27.471Z,4.30
2018-09-10T16:56:01.508Z,4.30
2018-09-10T16:58:35.458Z,4.63
2018-09-10T17:01:09.375Z,4.60
2018-09-10T17:03:46.754Z,4.10
2018-09-10T17:06:20.926Z,4.40
2018-09-10T17:08:54.693Z,4.27
2018-09-10T17:11:28.516Z,4.37
2018-09-10T17:14:02.554Z,4.20
2018-09-10T17:16:36.623Z,4.10
2018-09-10T17:19:10.923Z,4.40
2018-09-10T17:21:45.028Z,4.33
2018-09-10T17:24:19.090Z,4.50
2018-09-10T17:26:53.308Z,4.70
2018-09-10T17:29:27.422Z,4.30
2018-09-10T17:32:03.034Z,5.07
2018-09-10T17:34:36.815Z,4.67
2018-09-10T17:37:10.823Z,4.53
2018-09-10T17:39:44.543Z,4.50
2018-09-10T17:42:18.729Z,4.90
2018-09-10T17:44:52.498Z,4.60
2018-09-10T17:47:26.460Z,4.67
2018-09-10T17:50:00.203Z,4.50
2018-09-10T17:52:34.312Z,5.20
2018-09-10T17:55:08.128Z,4.70
2018-09-10T17:57:42.627Z,4.80
2018-09-10T18:00:16.739Z,4.67
2018-09-10T18:02:51.796Z,4.77
2018-09-10T18:05:26.820Z,4.57
2018-09-10T18:08:00.739Z,4.77
2018-09-10T18:10:35.441Z,4.40
2018-09-10T18:13:09.497Z,4.57
2018-09-10T18:15:43.313Z,4.20
2018-09-10T18:18:17.394Z,5.17
2018-09-10T18:20:51.247Z,4.50
2018-09-10T18:23:25.391Z,4.87
2018-09-10T18:25:59.320Z,4.93
2018-09-10T18:28:33.159Z,4.23
2018-09-10T18:31:06.924Z,4.83
2018-09-10T18:36:02.305Z,4.70
2018-09-10T18:38:38.576Z,4.37
2018-09-10T18:41:13.279Z,4.97
2018-09-10T18:43:47.440Z,4.80
2018-09-10T18:46:21.435Z,4.50
2018-09-10T18:48:55.484Z,4.63
2018-09-10T18:51:30.063Z,4.60
2018-09-10T18:54:03.997Z,4.90
2018-09-10T18:56:39.813Z,4.17
2018-09-10T18:59:14.181Z,4.60
2018-09-10T19:01:48.184Z,4.60
2018-09-10T19:04:22.123Z,4.20
2018-09-10T19:06:55.958Z,4.53
2018-09-10T19:09:29.885Z,4.47
2018-09-10T19:12:03.636Z,4.40
2018-09-10T19:14:37.640Z,4.70
2018-09-10T19:17:11.598Z,4.43
2018-09-10T19:19:45.546Z,4.90
2018-09-10T19:22:19.432Z,4.53
2018-09-10T19:24:54.453Z,4.50
2018-09-10T19:27:28.599Z,4.30
2018-09-10T19:30:02.649Z,4.47
2018-09-10T19:32:36.526Z,4.40
2018-09-10T19:35:10.540Z,3.90
2018-09-10T19:37:44.382Z,3.93
2018-09-10T19:40:18.314Z,3.83
2018-09-10T19:42:52.292Z,4.30
2018-09-10T19:45:26.071Z,4.33
2018-09-10T19:47:59.777Z,4.33
2018-09-10T19:50:33.819Z,4.40
2018-09-10T19:53:07.594Z,4.23
2018-09-10T19:55:42.357Z,4.60
2018-09-10T19:58:16.479Z,5.10
2018-09-10T20:00:50.786Z,4.67
2018-09-10T20:03:24.819Z,4.27
2018-09-10T20:05:58.602Z,4.63
2018-09-10T20:08:32.385Z,4.47
2018-09-10T20:11:06.523Z,4.57
2018-09-10T20:13:40.963Z,4.70
2018-09-10T20:16:15.009Z,4.43
2018-09-10T20:18:48.920Z,4.43
2018-09-10T20:21:22.871Z,4.47
2018-09-10T20:23:56.775Z,4.80
2018-09-10T20:26:30.905Z,4.80
2018-09-10T20:29:05.696Z,4.50
2018-09-10T20:31:40.297Z,4.63
2018-09-10T20:34:14.505Z,4.37
2018-09-10T20:36:50.427Z,4.50
2018-09-10T20:39:24.418Z,4.07
2018-09-10T20:41:58.841Z,4.60
2018-09-10T20:44:34.266Z,4.50
2018-09-10T20:47:08.598Z,4.10
2018-09-10T20:49:43.696Z,3.63
2018-09-10T20:52:17.936Z,4.33
2018-09-10T20:54:52.025Z,4.60
2018-09-10T20:57:26.041Z,4.33
2018-09-10T21:00:00.036Z,4.00
2018-09-10T21:02:33.941Z,4.07
2018-09-10T21:05:07.950Z,3.50
2018-09-10T21:07:41.770Z,3.40
2018-09-10T21:10:15.827Z,3.67
2018-09-10T21:12:49.656Z,3.80
2018-09-10T21:15:23.641Z,3.17
2018-09-10T21:17:57.431Z,3.20
2018-09-10T21:20:37.738Z,3.33
2018-09-10T21:23:11.777Z,3.37
2018-09-10T21:25:46.145Z,3.03
2018-09-10T21:28:20.137Z,2.70
2018-09-10T21:30:54.359Z,3.03
2018-09-10T21:33:29.095Z,2.67
2018-09-10T21:36:04.146Z,2.20
2018-09-10T21:38:41.215Z,2.40
2018-09-10T21:41:15.174Z,2.57
2018-09-10T21:43:49.096Z,2.30
2018-09-10T21:46:23.483Z,2.60
2018-09-10T21:48:57.498Z,2.63
2018-09-10T21:51:31.490Z,2.20
2018-09-10T21:54:06.243Z,2.63
2018-09-10T21:56:40.106Z,2.40
2018-09-10T21:59:14.981Z,2.60
2018-09-10T22:01:51.038Z,2.30
2018-09-10T22:04:25.930Z,2.40
2018-09-10T22:07:00.146Z,2.60
2018-09-10T22:09:35.442Z,1.80
2018-09-10T22:12:10.319Z,2.30
2018-09-10T22:14:44.166Z,2.50
2018-09-10T22:17:19.132Z,2.20
2018-09-10T22:20:09.501Z,2.30
2018-09-10T22:22:43.776Z,2.20
2018-09-10T22:31:28.381Z,1.90
2018-09-10T22:36:58.585Z,1.83
2018-09-10T22:39:33.165Z,2.00
2018-09-10T22:42:07.677Z,1.70
2018-09-10T22:44:48.179Z,1.93
2018-09-10T22:47:22.292Z,2.13
2018-09-10T22:52:52.437Z,1.80
2018-09-10T22:55:26.549Z,1.97
2018-09-10T22:58:00.995Z,2.10
2018-09-10T23:00:40.683Z,2.10
2018-09-10T23:03:15.084Z,2.37
2018-09-10T23:05:49.545Z,2.30
2018-09-10T23:08:23.311Z,1.70
2018-09-10T23:10:57.482Z,1.97
2018-09-10T23:13:34.332Z,1.90
2018-09-10T23:16:11.589Z,2.27
2018-09-10T23:18:48.476Z,1.90
2018-09-10T23:21:27.876Z,2.03
2018-09-10T23:24:01.766Z,2.00
2018-09-10T23:26:35.896Z,2.10
2018-09-10T23:29:10.049Z,2.07
2018-09-10T23:31:44.003Z,1.87
2018-09-10T23:34:18.236Z,2.13
2018-09-10T23:36:52.641Z,1.90
2018-09-10T23:39:26.459Z,2.10
2018-09-10T23:42:00.836Z,2.33
2018-09-10T23:44:35.863Z,2.17
2018-09-10T23:47:14.723Z,2.10
2018-09-10T23:52:42.470Z,2.13
2018-09-10T23:55:19.410Z,2.30
